createdAt,value
2022-08-30T00:01:02.976Z,25.00
2022-08-30T00:03:34.212Z,25.00
2022-08-30T00:06:00.992Z,24.90
2022-08-30T00:08:27.638Z,24.90
2022-08-30T00:10:54.395Z,24.90
2022-08-30T00:13:21.023Z,24.80
2022-08-30T00:16:17.649Z,24.80
2022-08-30T00:18:44.325Z,24.80
2022-08-30T00:21:12.172Z,24.70
2022-08-30T00:23:38.800Z,24.70
2022-08-30T00:26:05.772Z,24.70
2022-08-30T00:28:33.977Z,24.60
2022-08-30T00:31:01.935Z,24.70
2022-08-30T00:33:28.616Z,24.70
2022-08-30T00:35:55.351Z,24.60
2022-08-30T00:38:23.129Z,24.60
2022-08-30T00:40:49.839Z,24.50
2022-08-30T00:43:19.462Z,24.50
2022-08-30T00:45:46.395Z,24.50
2022-08-30T00:48:13.122Z,24.50
2022-08-30T00:50:44.893Z,24.40
2022-08-30T00:53:13.887Z,24.40
2022-08-30T00:55:41.973Z,24.40
2022-08-30T00:58:11.758Z,24.40
2022-08-30T01:00:38.371Z,24.40
2022-08-30T01:03:05.023Z,24.60
2022-08-30T01:05:31.670Z,24.70
2022-08-30T01:07:58.530Z,24.80
2022-08-30T01:10:25.127Z,25.00
2022-08-30T01:12:51.705Z,25.10
2022-08-30T01:15:18.308Z,25.20
2022-08-30T01:17:46.261Z,25.20
2022-08-30T01:20:14.481Z,25.10
2022-08-30T01:22:50.247Z,25.00
2022-08-30T01:25:22.732Z,25.00
2022-08-30T01:27:50.670Z,24.80
2022-08-30T01:30:17.324Z,24.80
2022-08-30T01:32:44.591Z,24.70
2022-08-30T01:35:12.035Z,24.70
2022-08-30T01:37:38.624Z,24.60
2022-08-30T01:40:05.707Z,24.60
2022-08-30T01:42:32.448Z,24.50
2022-08-30T01:44:59.035Z,24.50
2022-08-30T01:47:25.761Z,24.50
2022-08-30T01:49:52.378Z,24.50
2022-08-30T01:52:19.006Z,24.40
2022-08-30T01:54:45.731Z,24.40
2022-08-30T01:57:13.381Z,24.40
2022-08-30T01:59:40.201Z,24.40
2022-08-30T02:02:06.922Z,24.40
2022-08-30T02:04:33.503Z,24.30
2022-08-30T02:07:00.375Z,24.40
2022-08-30T02:09:26.949Z,24.30
2022-08-30T02:11:53.544Z,24.20
2022-08-30T02:14:21.227Z,24.30
2022-08-30T02:16:48.512Z,24.30
2022-08-30T02:19:15.358Z,24.30
2022-08-30T02:21:41.941Z,24.10
2022-08-30T02:24:08.536Z,24.20
2022-08-30T02:26:36.615Z,24.20
2022-08-30T02:29:05.257Z,24.20
2022-08-30T02:31:31.855Z,24.20
2022-08-30T02:33:58.695Z,24.20
2022-08-30T02:36:25.276Z,24.20
2022-08-30T02:38:51.874Z,24.30
2022-08-30T02:41:18.576Z,24.40
2022-08-30T02:43:45.233Z,24.60
2022-08-30T02:46:11.916Z,24.80
2022-08-30T02:48:38.538Z,24.80
2022-08-30T02:51:06.119Z,25.00
2022-08-30T02:53:35.987Z,25.00
2022-08-30T02:56:03.608Z,25.00
2022-08-30T02:58:30.205Z,24.90
2022-08-30T03:00:57.235Z,24.80
2022-08-30T03:03:23.968Z,24.80
2022-08-30T03:05:50.635Z,24.60
2022-08-30T03:08:17.218Z,24.60
2022-08-30T03:10:44.010Z,24.50
2022-08-30T03:13:10.594Z,24.40
2022-08-30T03:15:37.542Z,24.40
2022-08-30T03:18:04.261Z,24.40
2022-08-30T03:20:30.896Z,24.40
2022-08-30T03:22:57.894Z,24.30
2022-08-30T03:25:24.559Z,24.30
2022-08-30T03:27:51.136Z,24.30
2022-08-30T03:30:18.274Z,24.20
2022-08-30T03:32:45.068Z,24.00
2022-08-30T03:35:11.788Z,23.60
2022-08-30T03:37:38.374Z,23.20
2022-08-30T03:40:05.171Z,22.80
2022-08-30T03:42:33.215Z,22.50
2022-08-30T03:45:02.227Z,22.30
2022-08-30T03:47:29.090Z,22.10
2022-08-30T03:49:55.879Z,22.00
2022-08-30T03:52:22.500Z,21.90
2022-08-30T03:54:49.081Z,21.90
2022-08-30T03:57:20.355Z,21.70
2022-08-30T03:59:51.662Z,21.60
2022-08-30T04:02:18.562Z,21.40
2022-08-30T04:04:53.082Z,21.30
2022-08-30T04:07:19.851Z,21.40
2022-08-30T04:09:47.272Z,21.50
2022-08-30T04:12:13.887Z,21.50
2022-08-30T04:14:47.042Z,21.60
2022-08-30T04:17:13.633Z,21.60
2022-08-30T04:19:40.241Z,21.60
2022-08-30T04:22:06.845Z,21.60
2022-08-30T04:24:34.494Z,21.50
2022-08-30T04:27:01.167Z,21.50
2022-08-30T04:29:27.743Z,21.50
2022-08-30T04:31:54.368Z,21.40
2022-08-30T04:34:20.989Z,21.30
2022-08-30T04:36:48.530Z,21.20
2022-08-30T04:39:17.233Z,21.10
2022-08-30T04:41:43.845Z,21.10
2022-08-30T04:44:15.873Z,21.00
2022-08-30T04:46:50.183Z,21.00
2022-08-30T04:49:19.941Z,20.90
2022-08-30T04:51:52.751Z,20.90
2022-08-30T04:54:24.419Z,20.80
2022-08-30T04:56:51.037Z,20.70
2022-08-30T04:59:17.616Z,20.70
2022-08-30T05:01:45.521Z,20.70
2022-08-30T05:04:13.143Z,20.50
2022-08-30T05:06:39.743Z,20.50
2022-08-30T05:09:06.347Z,20.40
2022-08-30T05:11:32.974Z,20.50
2022-08-30T05:13:59.591Z,20.60
2022-08-30T05:16:26.259Z,21.00
2022-08-30T05:18:59.198Z,21.20
2022-08-30T05:21:26.493Z,21.50
2022-08-30T05:23:53.855Z,21.70
2022-08-30T05:26:21.503Z,21.80
2022-08-30T05:28:48.987Z,22.00
2022-08-30T05:31:26.521Z,22.20
2022-08-30T05:33:53.500Z,22.30
2022-08-30T05:36:20.786Z,22.40
2022-08-30T05:38:47.411Z,22.50
2022-08-30T05:41:14.512Z,22.50
2022-08-30T05:43:41.112Z,22.60
2022-08-30T05:46:10.314Z,22.60
2022-08-30T05:48:37.223Z,22.70
2022-08-30T05:51:12.484Z,22.70
2022-08-30T05:53:39.300Z,22.80
2022-08-30T05:56:06.898Z,22.80
2022-08-30T05:58:33.500Z,22.90
2022-08-30T06:01:08.392Z,22.90
2022-08-30T06:03:35.468Z,23.00
2022-08-30T06:06:03.630Z,23.10
2022-08-30T06:08:30.321Z,23.10
2022-08-30T06:10:56.900Z,23.10
2022-08-30T06:13:23.531Z,23.20
2022-08-30T06:15:51.138Z,23.20
2022-08-30T06:18:18.257Z,23.20
2022-08-30T06:20:54.940Z,23.30
2022-08-30T06:23:22.363Z,23.40
2022-08-30T06:25:48.993Z,23.60
2022-08-30T06:28:15.827Z,23.70
2022-08-30T06:30:42.801Z,23.90
2022-08-30T06:33:09.977Z,24.00
2022-08-30T06:35:46.843Z,24.10
2022-08-30T06:38:23.341Z,24.30
2022-08-30T06:40:50.945Z,24.40
2022-08-30T06:43:17.539Z,24.50
2022-08-30T06:45:44.124Z,24.50
2022-08-30T06:48:10.812Z,24.40
2022-08-30T06:50:37.419Z,24.40
2022-08-30T06:53:06.034Z,24.40
2022-08-30T06:55:33.487Z,24.30
2022-08-30T06:58:04.919Z,24.30
2022-08-30T07:00:31.515Z,24.30
2022-08-30T07:02:58.528Z,24.20
2022-08-30T07:05:25.191Z,24.20
2022-08-30T07:07:54.778Z,24.10
2022-08-30T07:10:21.724Z,24.10
2022-08-30T07:12:48.650Z,24.10
2022-08-30T07:15:15.321Z,24.10
2022-08-30T07:18:00.608Z,24.10
2022-08-30T07:20:27.206Z,24.10
2022-08-30T07:22:53.817Z,24.10
2022-08-30T07:25:20.575Z,24.10
2022-08-30T07:27:47.145Z,24.10
2022-08-30T07:30:14.193Z,24.00
2022-08-30T07:32:41.276Z,24.10
2022-08-30T07:35:10.108Z,24.00
2022-08-30T07:37:36.805Z,24.00
2022-08-30T07:40:07.729Z,24.00
2022-08-30T07:42:34.386Z,24.00
2022-08-30T07:45:03.122Z,24.00
2022-08-30T07:47:29.707Z,24.00
2022-08-30T07:49:56.302Z,24.00
2022-08-30T07:52:22.895Z,24.00
2022-08-30T07:55:17.539Z,24.00
2022-08-30T07:57:44.149Z,24.10
2022-08-30T08:00:13.003Z,24.20
2022-08-30T08:02:41.812Z,24.30
2022-08-30T08:05:09.682Z,24.50
2022-08-30T08:07:37.652Z,24.60
2022-08-30T08:10:09.085Z,24.80
2022-08-30T08:12:38.173Z,24.90
2022-08-30T08:15:13.043Z,24.90
2022-08-30T08:17:48.946Z,24.90
2022-08-30T08:20:16.625Z,24.80
2022-08-30T08:22:44.212Z,24.80
2022-08-30T08:25:22.156Z,24.70
2022-08-30T08:27:50.712Z,24.70
2022-08-30T08:30:23.979Z,24.60
2022-08-30T08:33:02.038Z,24.60
2022-08-30T08:35:35.018Z,24.50
2022-08-30T08:38:02.598Z,24.50
2022-08-30T08:40:30.382Z,24.50
2022-08-30T08:42:58.066Z,24.40
2022-08-30T08:46:08.059Z,24.50
2022-08-30T08:48:58.471Z,24.40
2022-08-30T08:51:45.215Z,24.40
2022-08-30T08:54:12.897Z,24.40
2022-08-30T08:56:39.516Z,24.40
2022-08-30T08:59:09.516Z,24.30
2022-08-30T09:01:39.771Z,24.30
2022-08-30T09:04:10.357Z,24.30
2022-08-30T09:06:54.376Z,24.40
2022-08-30T09:09:22.207Z,24.50
2022-08-30T09:11:48.846Z,24.60
2022-08-30T09:14:17.647Z,24.80
2022-08-30T09:17:08.368Z,24.90
2022-08-30T09:19:36.623Z,25.10
2022-08-30T09:22:05.360Z,25.20
2022-08-30T09:24:47.354Z,25.20
2022-08-30T09:27:14.812Z,25.20
2022-08-30T09:29:59.708Z,25.10
2022-08-30T09:32:27.218Z,25.20
2022-08-30T09:34:53.972Z,25.10
2022-08-30T09:37:51.841Z,25.00
2022-08-30T09:40:22.966Z,25.00
2022-08-30T09:43:21.490Z,25.00
2022-08-30T09:46:08.284Z,24.90
2022-08-30T09:48:58.038Z,24.90
2022-08-30T09:51:44.823Z,24.80
2022-08-30T09:54:19.242Z,24.80
2022-08-30T09:56:45.890Z,24.70
2022-08-30T09:59:37.481Z,24.70
2022-08-30T10:02:28.478Z,24.70
2022-08-30T10:05:03.592Z,24.60
2022-08-30T10:11:14.154Z,24.60
2022-08-30T10:13:52.259Z,24.60
2022-08-30T10:16:38.381Z,24.60
2022-08-30T10:22:35.640Z,24.80
2022-08-30T10:25:32.706Z,25.00
2022-08-30T10:28:07.610Z,25.10
2022-08-30T10:30:34.832Z,25.30
2022-08-30T10:33:27.451Z,25.40
2022-08-30T10:35:58.692Z,25.50
2022-08-30T10:38:35.341Z,25.40
2022-08-30T10:41:14.227Z,25.40
2022-08-30T10:43:43.984Z,25.40
2022-08-30T10:46:19.539Z,25.30
2022-08-30T10:48:47.449Z,25.30
2022-08-30T10:51:23.210Z,25.20
2022-08-30T10:53:54.301Z,25.10
2022-08-30T10:56:24.297Z,25.10
2022-08-30T10:58:54.405Z,25.10
2022-08-30T11:01:56.199Z,25.00
2022-08-30T11:04:40.823Z,25.00
2022-08-30T11:07:15.163Z,24.90
2022-08-30T11:09:44.833Z,24.90
2022-08-30T11:12:26.692Z,24.80
2022-08-30T11:14:53.293Z,24.80
2022-08-30T11:17:33.910Z,24.80
2022-08-30T11:20:00.984Z,24.80
2022-08-30T11:22:47.085Z,24.80
2022-08-30T11:25:38.708Z,24.90
2022-08-30T11:28:06.407Z,25.10
2022-08-30T11:30:33.097Z,25.20
2022-08-30T11:32:59.734Z,25.40
2022-08-30T11:35:35.539Z,25.40
2022-08-30T11:38:02.173Z,25.60
2022-08-30T11:40:43.338Z,25.60
2022-08-30T11:43:30.442Z,25.60
2022-08-30T11:46:19.384Z,25.60
2022-08-30T11:48:55.891Z,25.50
2022-08-30T11:51:41.502Z,25.40
2022-08-30T11:54:20.455Z,25.40
2022-08-30T11:57:11.491Z,25.40
2022-08-30T11:59:47.373Z,25.30
2022-08-30T12:02:32.845Z,25.20
2022-08-30T12:04:59.507Z,25.20
2022-08-30T12:07:55.650Z,25.20
2022-08-30T12:10:23.775Z,25.10
2022-08-30T12:12:53.572Z,25.00
2022-08-30T12:15:27.032Z,25.00
2022-08-30T12:18:16.024Z,25.00
2022-08-30T12:20:44.036Z,25.00
2022-08-30T12:23:18.732Z,25.00
2022-08-30T12:25:45.367Z,24.90
2022-08-30T12:28:13.425Z,25.00
2022-08-30T12:30:40.896Z,25.00
2022-08-30T12:33:12.249Z,25.20
2022-08-30T12:35:41.131Z,25.30
2022-08-30T12:38:12.257Z,25.40
2022-08-30T12:40:48.064Z,25.60
2022-08-30T12:43:26.424Z,25.70
2022-08-30T12:45:53.317Z,25.70
2022-08-30T12:48:35.804Z,25.70
2022-08-30T12:51:02.454Z,25.60
2022-08-30T12:53:32.278Z,25.60
2022-08-30T12:56:00.464Z,25.60
2022-08-30T12:58:34.177Z,25.50
2022-08-30T13:01:31.308Z,25.40
2022-08-30T13:04:02.736Z,25.40
2022-08-30T13:06:36.095Z,25.30
2022-08-30T13:09:02.806Z,25.30
2022-08-30T13:11:29.653Z,25.20
2022-08-30T13:13:58.244Z,25.20
2022-08-30T13:16:29.234Z,25.10
2022-08-30T13:19:16.920Z,25.10
2022-08-30T13:22:01.790Z,25.10
2022-08-30T13:24:28.515Z,25.10
2022-08-30T13:27:06.612Z,25.10
2022-08-30T13:29:33.498Z,25.00
2022-08-30T13:32:00.208Z,25.20
2022-08-30T13:34:26.942Z,25.30
2022-08-30T13:36:54.646Z,25.40
2022-08-30T13:39:21.806Z,25.60
2022-08-30T13:41:48.845Z,25.70
2022-08-30T13:44:15.840Z,25.80
2022-08-30T13:46:46.343Z,25.80
2022-08-30T13:52:20.242Z,25.70
2022-08-30T13:54:50.027Z,25.70
2022-08-30T13:57:53.266Z,25.60
2022-08-30T14:00:05.366Z,25.60
2022-08-30T14:02:38.104Z,25.50
2022-08-30T14:05:20.523Z,25.40
2022-08-30T14:07:56.646Z,25.40
2022-08-30T14:10:37.733Z,25.40
2022-08-30T14:13:15.587Z,25.30
2022-08-30T14:15:42.325Z,25.30
2022-08-30T14:18:08.934Z,25.20
2022-08-30T14:20:38.637Z,25.20
2022-08-30T14:23:10.315Z,25.20
2022-08-30T14:25:37.472Z,25.20
2022-08-30T14:28:04.138Z,25.10
2022-08-30T14:30:30.993Z,25.20
2022-08-30T14:32:59.962Z,25.40
2022-08-30T14:35:26.629Z,25.50
2022-08-30T14:37:54.244Z,25.60
2022-08-30T14:40:20.970Z,25.80
2022-08-30T14:42:47.621Z,25.80
2022-08-30T14:45:14.279Z,25.90
2022-08-30T14:47:40.924Z,25.80
2022-08-30T14:50:07.889Z,25.80
2022-08-30T14:52:34.571Z,25.80
2022-08-30T14:55:08.561Z,25.70
2022-08-30T14:57:39.162Z,25.60
2022-08-30T15:00:06.343Z,25.60
2022-08-30T15:02:32.948Z,25.60
2022-08-30T15:04:59.561Z,25.50
2022-08-30T15:07:26.138Z,25.40
2022-08-30T15:09:52.786Z,25.40
2022-08-30T15:12:19.388Z,25.40
2022-08-30T15:14:46.316Z,25.30
2022-08-30T15:17:13.025Z,25.40
2022-08-30T15:19:39.615Z,25.30
2022-08-30T15:22:06.285Z,25.30
2022-08-30T15:24:32.961Z,25.30
2022-08-30T15:26:59.901Z,25.40
2022-08-30T15:29:26.764Z,25.50
2022-08-30T15:31:53.411Z,25.60
2022-08-30T15:34:20.666Z,25.80
2022-08-30T15:36:47.503Z,25.90
2022-08-30T15:39:14.206Z,26.00
2022-08-30T15:41:43.880Z,26.00
2022-08-30T15:44:11.561Z,26.00
2022-08-30T15:46:39.225Z,25.90
2022-08-30T15:49:11.424Z,25.90
2022-08-30T15:51:41.248Z,25.80
2022-08-30T15:54:20.652Z,25.70
2022-08-30T15:56:59.378Z,25.70
2022-08-30T15:59:36.622Z,25.70
2022-08-30T16:02:03.358Z,25.60
2022-08-30T16:04:30.015Z,25.50
2022-08-30T16:06:57.667Z,25.40
2022-08-30T16:09:24.865Z,25.40
2022-08-30T16:11:51.458Z,25.40
2022-08-30T16:14:19.099Z,25.40
2022-08-30T16:16:46.767Z,25.40
2022-08-30T16:19:14.393Z,25.30
2022-08-30T16:21:41.956Z,25.30
2022-08-30T16:24:10.546Z,25.40
2022-08-30T16:26:40.201Z,25.40
2022-08-30T16:29:08.905Z,25.60
2022-08-30T16:31:35.763Z,25.70
2022-08-30T16:34:04.178Z,25.80
2022-08-30T16:36:31.203Z,25.90
2022-08-30T16:38:58.466Z,26.10
2022-08-30T16:41:25.254Z,26.10
2022-08-30T16:43:53.427Z,26.10
2022-08-30T16:46:22.949Z,26.10
2022-08-30T16:48:50.159Z,26.00
2022-08-30T16:51:22.432Z,26.00
2022-08-30T16:53:49.015Z,25.90
2022-08-30T16:56:20.542Z,25.80
2022-08-30T16:58:47.366Z,25.80
2022-08-30T17:01:14.134Z,25.70
2022-08-30T17:03:47.111Z,25.60
2022-08-30T17:06:13.883Z,25.60
2022-08-30T17:08:40.644Z,25.60
2022-08-30T17:11:07.342Z,25.50
2022-08-30T17:13:35.403Z,25.50
2022-08-30T17:16:02.180Z,25.40
2022-08-30T17:18:31.037Z,25.40
2022-08-30T17:20:59.486Z,25.40
2022-08-30T17:23:27.454Z,25.40
2022-08-30T17:25:56.864Z,25.30
2022-08-30T17:28:26.726Z,25.30
2022-08-30T17:30:53.477Z,25.40
2022-08-30T17:33:20.359Z,25.50
2022-08-30T17:35:47.302Z,25.60
2022-08-30T17:38:15.769Z,25.80
2022-08-30T17:40:43.738Z,25.90
2022-08-30T17:43:10.549Z,26.00
2022-08-30T17:45:37.668Z,26.10
2022-08-30T17:48:07.051Z,26.10
2022-08-30T17:50:35.755Z,26.10
2022-08-30T17:53:03.831Z,26.10
2022-08-30T17:55:32.599Z,26.10
2022-08-30T17:58:00.436Z,26.00
2022-08-30T18:00:47.336Z,25.90
2022-08-30T18:03:17.317Z,25.90
2022-08-30T18:05:46.810Z,25.80
2022-08-30T18:08:13.926Z,25.80
2022-08-30T18:10:41.675Z,25.70
2022-08-30T18:13:09.734Z,25.70
2022-08-30T18:15:36.454Z,25.60
2022-08-30T18:18:05.191Z,25.60
2022-08-30T18:20:32.843Z,25.50
2022-08-30T18:23:00.528Z,25.40
2022-08-30T18:25:27.190Z,25.40
2022-08-30T18:27:58.969Z,25.40
2022-08-30T18:30:33.305Z,25.40
2022-08-30T18:33:01.601Z,25.40
2022-08-30T18:35:29.528Z,25.40
2022-08-30T18:37:58.071Z,25.50
2022-08-30T18:40:24.736Z,25.60
2022-08-30T18:42:51.482Z,25.70
2022-08-30T18:45:18.162Z,25.80
2022-08-30T18:47:47.131Z,26.00
2022-08-30T18:50:15.999Z,26.10
2022-08-30T18:52:45.090Z,26.10
2022-08-30T18:55:12.122Z,26.10
2022-08-30T18:57:38.829Z,26.10
2022-08-30T19:00:05.826Z,26.00
2022-08-30T19:02:32.582Z,26.00
2022-08-30T19:04:59.288Z,25.90
2022-08-30T19:07:34.346Z,25.90
2022-08-30T19:10:07.401Z,25.80
2022-08-30T19:12:40.064Z,25.70
2022-08-30T19:15:11.113Z,25.70
2022-08-30T19:17:41.338Z,25.60
2022-08-30T19:20:09.932Z,25.60
2022-08-30T19:23:05.779Z,25.60
2022-08-30T19:25:24.088Z,25.50
2022-08-30T19:27:50.947Z,25.50
2022-08-30T19:30:25.056Z,25.40
2022-08-30T19:32:56.632Z,25.50
2022-08-30T19:35:24.075Z,25.40
2022-08-30T19:37:51.019Z,25.40
2022-08-30T19:40:17.997Z,25.40
2022-08-30T19:42:46.510Z,25.40
2022-08-30T19:45:13.947Z,25.40
2022-08-30T19:47:40.554Z,25.40
2022-08-30T19:50:07.425Z,25.30
2022-08-30T19:52:35.564Z,25.30
2022-08-30T19:55:04.058Z,25.40
2022-08-30T19:57:30.741Z,25.60
2022-08-30T19:59:57.883Z,25.70
2022-08-30T20:02:24.640Z,25.80
2022-08-30T20:04:53.766Z,26.00
2022-08-30T20:10:11.200Z,26.10
2022-08-30T20:12:39.701Z,26.10
2022-08-30T20:15:14.555Z,26.00
2022-08-30T20:18:02.633Z,26.00
2022-08-30T20:20:31.995Z,25.90
2022-08-30T20:22:59.883Z,25.80
2022-08-30T20:25:30.118Z,25.80
2022-08-30T20:27:56.693Z,25.80
2022-08-30T20:30:28.438Z,25.60
2022-08-30T20:32:58.777Z,25.60
2022-08-30T20:35:27.866Z,25.60
2022-08-30T20:37:56.147Z,25.60
2022-08-30T20:40:22.969Z,25.50
2022-08-30T20:42:51.380Z,25.50
2022-08-30T20:45:19.090Z,25.50
2022-08-30T20:47:45.727Z,25.40
2022-08-30T20:50:14.025Z,25.40
2022-08-30T20:52:40.771Z,25.40
2022-08-30T20:55:08.002Z,25.40
2022-08-30T20:57:34.608Z,25.40
2022-08-30T21:00:01.575Z,25.30
2022-08-30T21:02:28.242Z,25.40
2022-08-30T21:04:54.954Z,25.30
2022-08-30T21:07:21.578Z,25.30
2022-08-30T21:09:48.257Z,25.40
2022-08-30T21:12:16.461Z,25.50
2022-08-30T21:14:44.257Z,25.60
2022-08-30T21:17:12.936Z,25.80
2022-08-30T21:19:43.323Z,25.90
2022-08-30T21:22:11.778Z,26.00
2022-08-30T21:24:38.378Z,26.10
2022-08-30T21:27:05.033Z,26.10
2022-08-30T21:29:33.038Z,26.00
2022-08-30T21:31:59.643Z,26.00
2022-08-30T21:34:26.321Z,26.00
2022-08-30T21:36:53.267Z,25.90
2022-08-30T21:39:20.194Z,25.80
2022-08-30T21:41:47.105Z,25.80
2022-08-30T21:44:14.802Z,25.80
2022-08-30T21:46:41.517Z,25.70
2022-08-30T21:49:08.574Z,25.60
2022-08-30T21:51:36.583Z,25.60
2022-08-30T21:54:04.540Z,25.60
2022-08-30T21:56:31.126Z,25.60
2022-08-30T21:58:58.300Z,25.50
2022-08-30T22:01:25.570Z,25.50
2022-08-30T22:03:53.195Z,25.50
2022-08-30T22:06:19.785Z,25.40
2022-08-30T22:08:49.011Z,25.40
2022-08-30T22:11:19.186Z,25.40
2022-08-30T22:13:46.727Z,25.40
2022-08-30T22:16:14.889Z,25.40
2022-08-30T22:18:41.524Z,25.30
2022-08-30T22:21:08.283Z,25.40
2022-08-30T22:23:34.945Z,25.50
2022-08-30T22:26:02.645Z,25.60
2022-08-30T22:28:29.227Z,25.70
2022-08-30T22:30:55.890Z,25.80
2022-08-30T22:33:22.478Z,26.00
2022-08-30T22:35:49.121Z,26.10
2022-08-30T22:38:15.809Z,26.10
2022-08-30T22:40:48.546Z,26.00
2022-08-30T22:43:15.583Z,26.00
2022-08-30T22:45:42.201Z,25.90
2022-08-30T22:48:09.217Z,25.90
2022-08-30T22:50:36.031Z,25.90
2022-08-30T22:53:02.681Z,25.80
2022-08-30T22:55:29.282Z,25.70
2022-08-30T22:57:55.925Z,25.70
2022-08-30T23:00:22.596Z,25.70
2022-08-30T23:02:52.414Z,25.60
2022-08-30T23:05:19.722Z,25.60
2022-08-30T23:07:46.299Z,25.60
2022-08-30T23:10:13.071Z,25.50
2022-08-30T23:12:39.775Z,25.50
2022-08-30T23:15:07.338Z,25.50
2022-08-30T23:17:39.459Z,25.50
2022-08-30T23:20:06.663Z,25.40
2022-08-30T23:22:33.233Z,25.40
2022-08-30T23:25:18.609Z,25.40
2022-08-30T23:28:03.985Z,25.40
2022-08-30T23:30:49.293Z,25.40
2022-08-30T23:33:34.683Z,25.40
2022-08-30T23:36:30.435Z,25.40
2022-08-30T23:39:15.650Z,25.40
2022-08-30T23:42:01.056Z,25.50
2022-08-30T23:44:46.408Z,25.60
2022-08-30T23:47:31.771Z,25.80
2022-08-30T23:50:18.269Z,25.90
2022-08-30T23:53:03.462Z,26.00
2022-08-30T23:55:48.806Z,26.10
2022-08-30T23:58:34.029Z,26.10
